Time;durP1;ratioP1;P1;durP2;ratioP2;P2;SDS_P1;SDS_P2;PMS_P1;PMS_P2;Temp;Humidity;BMP_temperature;BMP_pressure;BME280_temperature;BME280_humidity;BME280_pressure;Samples;Min_cycle;Max_cycle;Signal;HPM_P1;HPM_P2
2021/03/17 00:02:16;;;;;;;7.05;4.32;;;;;;;;;;5034989;28;20045;-81
2021/03/17 00:04:43;;;;;;;9.43;4.78;;;;;;;;;;5035057;28;20073;-81
2021/03/17 00:07:10;;;;;;;9.70;4.85;;;;;;;;;;5020938;28;20061;-82
2021/03/17 00:09:37;;;;;;;7.72;4.80;;;;;;;;;;5026353;28;20041;-82
2021/03/17 00:12:04;;;;;;;11.32;5.25;;;;;;;;;;5026551;28;20048;-82
2021/03/17 00:14:30;;;;;;;11.70;4.45;;;;;;;;;;5039842;28;20045;-82
2021/03/17 00:16:56;;;;;;;10.10;4.88;;;;;;;;;;5039513;28;20187;-82
2021/03/17 00:19:22;;;;;;;10.52;5.22;;;;;;;;;;5023560;28;20486;-82
2021/03/17 00:21:49;;;;;;;9.15;5.75;;;;;;;;;;5039717;28;20064;-82
2021/03/17 00:24:15;;;;;;;7.70;4.68;;;;;;;;;;5040186;28;20046;-82
2021/03/17 00:26:41;;;;;;;9.02;5.00;;;;;;;;;;5033140;28;20420;-82
2021/03/17 00:29:07;;;;;;;9.10;4.80;;;;;;;;;;5039693;28;20042;-83
2021/03/17 00:31:33;;;;;;;9.13;5.00;;;;;;;;;;5003785;28;20042;-82
2021/03/17 00:34:00;;;;;;;11.02;5.32;;;;;;;;;;5039222;28;20046;-82
2021/03/17 00:36:26;;;;;;;10.48;5.88;;;;;;;;;;5028838;28;20049;-82
2021/03/17 00:38:53;;;;;;;8.32;4.93;;;;;;;;;;5020011;28;20057;-82
2021/03/17 00:41:19;;;;;;;11.27;6.05;;;;;;;;;;5039379;28;20075;-82
2021/03/17 00:43:45;;;;;;;9.73;5.80;;;;;;;;;;5037597;28;20072;-83
2021/03/17 00:46:11;;;;;;;10.93;6.18;;;;;;;;;;5030460;28;20482;-83
2021/03/17 00:48:37;;;;;;;12.73;7.65;;;;;;;;;;5018719;28;20046;-82
2021/03/17 00:51:04;;;;;;;10.27;5.60;;;;;;;;;;5020625;28;20554;-82
2021/03/17 00:53:30;;;;;;;9.52;5.50;;;;;;;;;;5038711;28;20046;-82
2021/03/17 00:55:56;;;;;;;11.30;7.22;;;;;;;;;;5036837;28;20091;-81
2021/03/17 00:58:22;;;;;;;14.65;6.43;;;;;;;;;;5031829;28;20045;-82
2021/03/17 01:00:48;;;;;;;9.57;6.28;;;;;;;;;;5015366;28;20068;-81
2021/03/17 01:03:14;;;;;;;11.05;6.22;;;;;;;;;;5017377;28;20054;-82
2021/03/17 01:05:41;;;;;;;11.93;6.28;;;;;;;;;;5026222;28;20051;-81
2021/03/17 01:08:08;;;;;;;11.63;6.85;;;;;;;;;;5021578;28;20042;-81
2021/03/17 01:10:38;;;;;;;14.15;6.93;;;;;;;;;;5019914;28;20061;-81
2021/03/17 01:13:06;;;;;;;11.88;6.57;;;;;;;;;;5026612;28;20502;-82
2021/03/17 01:15:34;;;;;;;10.60;6.40;;;;;;;;;;5021114;28;20045;-82
2021/03/17 01:18:00;;;;;;;12.25;7.80;;;;;;;;;;5031597;28;20064;-81
2021/03/17 01:20:28;;;;;;;14.70;7.38;;;;;;;;;;5016603;28;20061;-82
2021/03/17 01:22:55;;;;;;;10.75;7.00;;;;;;;;;;5017332;28;20054;-82
2021/03/17 01:25:27;;;;;;;16.40;8.27;;;;;;;;;;5028339;28;20053;-82
2021/03/17 01:27:53;;;;;;;12.80;6.90;;;;;;;;;;5042151;28;20474;-82
2021/03/17 01:30:25;;;;;;;12.73;6.80;;;;;;;;;;5037208;28;20104;-82
2021/03/17 01:32:51;;;;;;;12.85;6.88;;;;;;;;;;5039509;28;20042;-82
2021/03/17 01:35:17;;;;;;;12.55;7.43;;;;;;;;;;5040031;28;20045;-84
2021/03/17 01:37:43;;;;;;;10.68;7.22;;;;;;;;;;5044668;28;20041;-83
2021/03/17 01:40:11;;;;;;;11.18;7.65;;;;;;;;;;5023082;28;20046;-83
2021/03/17 01:42:37;;;;;;;11.30;7.63;;;;;;;;;;5048200;28;20045;-82
2021/03/17 01:45:06;;;;;;;13.13;7.85;;;;;;;;;;5014825;28;20053;-82
2021/03/17 01:47:33;;;;;;;12.13;7.47;;;;;;;;;;5037535;28;20061;-81
2021/03/17 01:49:59;;;;;;;13.23;8.45;;;;;;;;;;5035537;28;20041;-82
2021/03/17 01:52:25;;;;;;;12.63;7.78;;;;;;;;;;5036834;28;20456;-81
2021/03/17 01:54:52;;;;;;;13.32;8.73;;;;;;;;;;5035070;28;20049;-81
2021/03/17 01:57:18;;;;;;;12.15;7.78;;;;;;;;;;5043616;28;20045;-82
2021/03/17 01:59:44;;;;;;;11.52;7.78;;;;;;;;;;5037077;28;20087;-81
2021/03/17 02:02:09;;;;;;;11.70;7.57;;;;;;;;;;5043683;23;20069;-82
2021/03/17 02:04:36;;;;;;;14.73;8.52;;;;;;;;;;4997755;28;20078;-82
2021/03/17 02:07:02;;;;;;;13.32;7.43;;;;;;;;;;4998139;28;20042;-82
2021/03/17 02:09:28;;;;;;;12.60;7.90;;;;;;;;;;4998658;28;20053;-81
2021/03/17 02:12:01;;;;;;;12.55;8.45;;;;;;;;;;4997704;28;20058;-82
2021/03/17 02:14:38;;;;;;;11.85;7.32;;;;;;;;;;4998047;28;20501;-82
2021/03/17 02:17:07;;;;;;;12.07;7.70;;;;;;;;;;4976752;28;20418;-82
2021/03/17 02:20:18;;;;;;;12.05;8.02;;;;;;;;;;4964784;28;20081;-82
2021/03/17 02:22:49;;;;;;;16.00;8.77;;;;;;;;;;4981809;28;20042;-81
2021/03/17 02:25:43;;;;;;;14.95;8.90;;;;;;;;;;4977460;28;20109;-82
2021/03/17 02:28:22;;;;;;;14.70;8.30;;;;;;;;;;4976649;28;20055;-82
2021/03/17 02:31:05;;;;;;;12.98;8.38;;;;;;;;;;4985217;28;20043;-82
2021/03/17 02:33:53;;;;;;;11.18;7.75;;;;;;;;;;4977235;28;20521;-81
2021/03/17 02:36:22;;;;;;;15.20;8.48;;;;;;;;;;4978284;28;20043;-82
2021/03/17 02:38:52;;;;;;;12.70;8.05;;;;;;;;;;4977922;28;20047;-81
2021/03/17 02:41:23;;;;;;;14.85;8.18;;;;;;;;;;4986554;28;20038;-82
2021/03/17 02:43:53;;;;;;;12.20;8.20;;;;;;;;;;4982592;28;20054;-82
2021/03/17 02:46:19;;;;;;;12.32;7.18;;;;;;;;;;4977295;28;20051;-83
2021/03/17 02:48:46;;;;;;;12.30;7.63;;;;;;;;;;4976519;28;20487;-83
2021/03/17 02:51:22;;;;;;;12.23;7.65;;;;;;;;;;4977838;28;20047;-83
2021/03/17 02:53:50;;;;;;;14.05;8.40;;;;;;;;;;4983114;28;20053;-81
2021/03/17 02:56:16;;;;;;;13.57;8.27;;;;;;;;;;4976663;28;20057;-82
2021/03/17 02:58:44;;;;;;;11.52;7.35;;;;;;;;;;4959323;28;20055;-82
2021/03/17 03:01:12;;;;;;;10.95;7.68;;;;;;;;;;4992537;28;20081;-82
2021/03/17 03:03:41;;;;;;;12.30;8.18;;;;;;;;;;4976826;28;20043;-81
2021/03/17 03:06:08;;;;;;;11.30;7.70;;;;;;;;;;4977468;28;20125;-81
2021/03/17 03:08:37;;;;;;;14.27;9.23;;;;;;;;;;4976944;28;20059;-81
2021/03/17 03:11:06;;;;;;;13.35;9.07;;;;;;;;;;4976646;28;20054;-81
2021/03/17 03:13:32;;;;;;;11.73;7.50;;;;;;;;;;4980594;28;20042;-81
2021/03/17 03:15:58;;;;;;;9.98;6.20;;;;;;;;;;4981451;28;20047;-81
2021/03/17 03:18:25;;;;;;;13.25;8.18;;;;;;;;;;4975989;28;20057;-81
2021/03/17 03:20:53;;;;;;;12.85;8.63;;;;;;;;;;4982050;28;20069;-81
2021/03/17 03:23:20;;;;;;;13.45;7.97;;;;;;;;;;4981414;28;20042;-81
2021/03/17 03:25:47;;;;;;;12.23;8.80;;;;;;;;;;4989383;28;20047;-82
2021/03/17 03:28:14;;;;;;;13.88;8.88;;;;;;;;;;4982976;28;20051;-81
2021/03/17 03:30:43;;;;;;;14.18;9.23;;;;;;;;;;4977240;28;20043;-82
2021/03/17 03:33:09;;;;;;;14.57;8.85;;;;;;;;;;4983027;28;20051;-81
2021/03/17 03:35:35;;;;;;;11.10;7.60;;;;;;;;;;4982869;28;20054;-81
2021/03/17 03:38:04;;;;;;;13.32;9.20;;;;;;;;;;4981460;28;20094;-81
2021/03/17 03:40:30;;;;;;;14.18;9.48;;;;;;;;;;4984454;28;20046;-81
2021/03/17 03:42:57;;;;;;;17.05;9.63;;;;;;;;;;4994638;28;20047;-81
2021/03/17 03:45:23;;;;;;;11.13;7.82;;;;;;;;;;4990137;28;20069;-81
2021/03/17 03:47:49;;;;;;;13.63;8.25;;;;;;;;;;4983388;28;20047;-81
2021/03/17 03:50:18;;;;;;;11.30;7.90;;;;;;;;;;4982010;28;20498;-81
2021/03/17 03:52:48;;;;;;;13.02;9.07;;;;;;;;;;4984440;28;20054;-81
2021/03/17 03:55:24;;;;;;;15.60;9.40;;;;;;;;;;4999992;28;20054;-81
2021/03/17 03:57:52;;;;;;;13.93;8.43;;;;;;;;;;5000819;28;20105;-81
2021/03/17 04:00:20;;;;;;;12.30;7.85;;;;;;;;;;4982371;28;20047;-81
2021/03/17 04:02:49;;;;;;;13.23;9.70;;;;;;;;;;4986734;28;20513;-81
2021/03/17 04:05:18;;;;;;;11.73;8.25;;;;;;;;;;4984877;28;20054;-81
2021/03/17 04:07:46;;;;;;;15.65;9.02;;;;;;;;;;4983442;28;20062;-80
2021/03/17 04:10:13;;;;;;;14.57;10.15;;;;;;;;;;4982479;28;20055;-80
2021/03/17 04:12:41;;;;;;;15.77;10.82;;;;;;;;;;4993168;28;20092;-81
2021/03/17 04:15:08;;;;;;;15.27;9.70;;;;;;;;;;4982485;28;20495;-80
2021/03/17 04:17:40;;;;;;;15.20;9.27;;;;;;;;;;4982767;28;20054;-80
2021/03/17 04:20:09;;;;;;;13.38;9.13;;;;;;;;;;4986932;28;20058;-80
2021/03/17 04:22:36;;;;;;;12.63;8.35;;;;;;;;;;4968966;28;20049;-80
2021/03/17 04:25:04;;;;;;;15.20;9.80;;;;;;;;;;4986507;28;20054;-81
2021/03/17 04:27:30;;;;;;;16.40;9.00;;;;;;;;;;4982508;28;20057;-81
2021/03/17 04:29:57;;;;;;;13.27;8.80;;;;;;;;;;4982277;28;20507;-80
2021/03/17 04:32:23;;;;;;;14.55;10.07;;;;;;;;;;4982253;28;20051;-80
2021/03/17 04:34:51;;;;;;;16.58;11.20;;;;;;;;;;4994230;28;20077;-81
2021/03/17 04:37:18;;;;;;;13.13;9.45;;;;;;;;;;4999231;28;20047;-80
2021/03/17 04:39:44;;;;;;;16.45;9.88;;;;;;;;;;4996882;28;20057;-80
2021/03/17 04:42:11;;;;;;;13.60;10.10;;;;;;;;;;4979045;28;20131;-81
2021/03/17 04:44:37;;;;;;;12.88;9.68;;;;;;;;;;4982233;28;20402;-80
2021/03/17 04:47:05;;;;;;;12.77;8.48;;;;;;;;;;4994893;28;20054;-80
2021/03/17 04:49:33;;;;;;;15.27;9.50;;;;;;;;;;4983410;28;20101;-80
2021/03/17 04:52:00;;;;;;;14.07;9.43;;;;;;;;;;4978919;28;20109;-81
2021/03/17 04:54:26;;;;;;;17.77;10.90;;;;;;;;;;4978204;28;20043;-80
2021/03/17 04:56:53;;;;;;;15.27;10.35;;;;;;;;;;4978334;28;20131;-80
2021/03/17 04:59:21;;;;;;;17.05;11.65;;;;;;;;;;4978335;28;20047;-80
2021/03/17 05:01:47;;;;;;;16.20;10.55;;;;;;;;;;4977017;28;20046;-80
2021/03/17 05:04:14;;;;;;;13.40;9.85;;;;;;;;;;4977791;28;20043;-81
2021/03/17 05:06:42;;;;;;;13.93;9.93;;;;;;;;;;4978362;28;20050;-80
2021/03/17 05:09:10;;;;;;;17.13;10.20;;;;;;;;;;4978440;28;20042;-80
2021/03/17 05:11:37;;;;;;;23.17;14.80;;;;;;;;;;4979902;28;20043;-80
2021/03/17 05:14:03;;;;;;;19.33;12.70;;;;;;;;;;4980556;28;20054;-80
2021/03/17 05:16:29;;;;;;;19.52;12.40;;;;;;;;;;4979764;28;20054;-79
2021/03/17 05:18:56;;;;;;;19.60;13.57;;;;;;;;;;4986716;28;20380;-80
2021/03/17 05:21:21;;;;;;;16.23;11.32;;;;;;;;;;4985973;28;20050;-80
2021/03/17 05:23:48;;;;;;;18.63;12.40;;;;;;;;;;4977635;28;20512;-79
2021/03/17 05:26:14;;;;;;;17.70;11.85;;;;;;;;;;4980070;28;20047;-81
2021/03/17 05:28:41;;;;;;;20.48;12.70;;;;;;;;;;4978644;28;20051;-80
2021/03/17 05:31:08;;;;;;;18.02;12.07;;;;;;;;;;4978262;28;20050;-80
2021/03/17 05:33:34;;;;;;;18.80;12.45;;;;;;;;;;4978133;28;20046;-80
2021/03/17 05:36:13;;;;;;;18.38;11.73;;;;;;;;;;4986287;28;20050;-81
2021/03/17 05:38:39;;;;;;;17.48;12.40;;;;;;;;;;4986439;28;20101;-81
2021/03/17 05:41:06;;;;;;;19.38;12.52;;;;;;;;;;4988242;28;20051;-80
2021/03/17 05:43:35;;;;;;;18.33;12.23;;;;;;;;;;4979703;28;20398;-80
2021/03/17 05:46:06;;;;;;;17.25;11.38;;;;;;;;;;4978446;28;20498;-80
2021/03/17 05:48:32;;;;;;;25.42;14.40;;;;;;;;;;4979923;28;20058;-80
2021/03/17 05:50:59;;;;;;;19.75;11.98;;;;;;;;;;4985082;28;20050;-80
2021/03/17 05:53:25;;;;;;;19.75;13.13;;;;;;;;;;4982220;28;20051;-80
2021/03/17 05:55:52;;;;;;;21.50;13.65;;;;;;;;;;4982237;28;20050;-80
2021/03/17 05:58:18;;;;;;;21.95;14.02;;;;;;;;;;4957591;28;20451;-80
2021/03/17 06:00:45;;;;;;;24.42;13.82;;;;;;;;;;4977537;28;20418;-80
2021/03/17 06:03:12;;;;;;;41.60;22.63;;;;;;;;;;4977824;28;20047;-80
2021/03/17 06:05:38;;;;;;;33.35;18.25;;;;;;;;;;4981135;28;20050;-80
2021/03/17 06:08:05;;;;;;;29.65;17.67;;;;;;;;;;4983696;28;20062;-81
2021/03/17 06:10:31;;;;;;;26.88;16.58;;;;;;;;;;4980517;28;20402;-80
2021/03/17 06:13:01;;;;;;;23.90;14.85;;;;;;;;;;4978368;28;20050;-81
2021/03/17 06:15:29;;;;;;;24.05;14.07;;;;;;;;;;4986591;28;20055;-81
2021/03/17 06:17:59;;;;;;;28.20;16.95;;;;;;;;;;4992288;28;20101;-80
2021/03/17 06:20:25;;;;;;;29.15;17.35;;;;;;;;;;4979713;28;20053;-81
2021/03/17 06:22:51;;;;;;;19.02;12.50;;;;;;;;;;4979523;28;20078;-80
2021/03/17 06:25:17;;;;;;;23.42;14.70;;;;;;;;;;4977741;28;20047;-80
2021/03/17 06:27:43;;;;;;;21.75;13.63;;;;;;;;;;4980784;28;20046;-80
2021/03/17 06:30:11;;;;;;;22.13;13.60;;;;;;;;;;4977903;28;20047;-80
2021/03/17 06:32:37;;;;;;;23.13;12.80;;;;;;;;;;4979035;28;20054;-80
2021/03/17 06:35:15;;;;;;;23.25;13.95;;;;;;;;;;4977308;28;20046;-80
2021/03/17 06:37:41;;;;;;;25.05;14.25;;;;;;;;;;4976976;28;20053;-80
2021/03/17 06:40:21;;;;;;;20.50;13.05;;;;;;;;;;4981505;28;20054;-81
2021/03/17 06:42:47;;;;;;;28.70;13.57;;;;;;;;;;4971340;28;20070;-80
2021/03/17 06:45:14;;;;;;;22.85;13.73;;;;;;;;;;4976080;28;20046;-80
2021/03/17 06:47:40;;;;;;;23.00;13.27;;;;;;;;;;4980562;28;20047;-80
2021/03/17 06:50:08;;;;;;;25.05;15.60;;;;;;;;;;4978315;28;20134;-81
2021/03/17 06:52:36;;;;;;;21.92;13.35;;;;;;;;;;4980519;28;20042;-81
2021/03/17 06:55:14;;;;;;;26.52;14.18;;;;;;;;;;4985490;28;20505;-81
2021/03/17 06:57:42;;;;;;;22.30;14.07;;;;;;;;;;4977450;28;20047;-80
2021/03/17 07:00:20;;;;;;;22.40;12.40;;;;;;;;;;4980012;28;20050;-81
2021/03/17 07:02:53;;;;;;;24.05;14.60;;;;;;;;;;4980100;28;20043;-80
2021/03/17 07:05:19;;;;;;;22.70;13.50;;;;;;;;;;4976824;28;20043;-80
2021/03/17 07:07:48;;;;;;;24.70;14.35;;;;;;;;;;4977119;28;20762;-80
2021/03/17 07:10:14;;;;;;;18.05;10.95;;;;;;;;;;4978690;28;20043;-80
2021/03/17 07:12:40;;;;;;;23.25;13.80;;;;;;;;;;4978202;28;20051;-81
2021/03/17 07:15:09;;;;;;;20.50;13.82;;;;;;;;;;4992396;28;20413;-81
2021/03/17 07:17:35;;;;;;;21.13;13.20;;;;;;;;;;4983374;28;20080;-82
2021/03/17 07:20:05;;;;;;;19.55;12.18;;;;;;;;;;4980497;28;20047;-81
2021/03/17 07:22:31;;;;;;;22.05;13.57;;;;;;;;;;4991116;28;20057;-82
2021/03/17 07:25:01;;;;;;;20.38;12.63;;;;;;;;;;4981501;28;20039;-82
2021/03/17 07:27:28;;;;;;;20.52;12.63;;;;;;;;;;4978660;28;20069;-80
2021/03/17 07:30:13;;;;;;;21.88;12.55;;;;;;;;;;4976917;28;20038;-80
2021/03/17 07:32:56;;;;;;;21.38;13.02;;;;;;;;;;4982960;28;20648;-80
2021/03/17 07:35:26;;;;;;;23.02;12.48;;;;;;;;;;4981392;28;20053;-82
2021/03/17 07:38:03;;;;;;;21.27;12.05;;;;;;;;;;4984493;28;20047;-81
2021/03/17 07:40:30;;;;;;;24.33;12.48;;;;;;;;;;4976903;28;20043;-82
2021/03/17 07:42:59;;;;;;;22.70;12.65;;;;;;;;;;4981757;28;20047;-82
2021/03/17 07:45:26;;;;;;;26.13;12.55;;;;;;;;;;4982341;28;20098;-81
2021/03/17 07:47:53;;;;;;;26.30;14.52;;;;;;;;;;4977289;28;20107;-81
2021/03/17 07:50:19;;;;;;;21.95;13.30;;;;;;;;;;4980339;28;20050;-80
2021/03/17 07:52:45;;;;;;;21.58;12.88;;;;;;;;;;4979116;28;20371;-81
2021/03/17 07:55:12;;;;;;;24.65;14.32;;;;;;;;;;4978974;28;20047;-81
2021/03/17 07:57:40;;;;;;;21.35;13.07;;;;;;;;;;4976228;28;20101;-81
2021/03/17 08:00:07;;;;;;;24.10;13.90;;;;;;;;;;4979318;28;20051;-81
2021/03/17 08:02:35;;;;;;;25.10;13.40;;;;;;;;;;4982577;28;20050;-81
2021/03/17 08:05:02;;;;;;;21.52;12.38;;;;;;;;;;4978226;28;20085;-82
2021/03/17 08:07:28;;;;;;;23.52;12.95;;;;;;;;;;4982559;28;20110;-83
2021/03/17 08:09:55;;;;;;;18.75;11.57;;;;;;;;;;4992210;28;20100;-84
2021/03/17 08:12:21;;;;;;;20.65;12.02;;;;;;;;;;4993145;28;20104;-81
2021/03/17 08:14:49;;;;;;;23.48;13.02;;;;;;;;;;4985327;28;20051;-84
2021/03/17 08:17:30;;;;;;;20.52;12.88;;;;;;;;;;4985413;28;20137;-83
2021/03/17 08:20:15;;;;;;;17.75;11.38;;;;;;;;;;4986773;28;20074;-84
2021/03/17 08:22:41;;;;;;;17.83;10.85;;;;;;;;;;4988928;28;20592;-81
2021/03/17 08:25:09;;;;;;;18.63;11.18;;;;;;;;;;4985439;28;20468;-81
2021/03/17 08:27:35;;;;;;;19.05;11.82;;;;;;;;;;4989193;28;20518;-86
2021/03/17 08:30:08;;;;;;;21.63;11.38;;;;;;;;;;4987012;28;20043;-80
2021/03/17 08:32:53;;;;;;;16.98;11.77;;;;;;;;;;4986022;28;20034;-81
2021/03/17 08:35:20;;;;;;;18.08;10.60;;;;;;;;;;4984118;28;20050;-81
2021/03/17 08:37:51;;;;;;;20.88;11.50;;;;;;;;;;4984608;28;20043;-83
2021/03/17 08:40:47;;;;;;;17.23;9.77;;;;;;;;;;5001424;28;20047;-81
2021/03/17 08:43:44;;;;;;;20.73;10.18;;;;;;;;;;4989173;28;20105;-82
2021/03/17 08:46:12;;;;;;;17.05;10.48;;;;;;;;;;4983203;28;20047;-83
2021/03/17 08:48:58;;;;;;;19.67;10.70;;;;;;;;;;4994039;28;20078;-82
2021/03/17 08:52:04;;;;;;;18.38;10.05;;;;;;;;;;4986907;28;20058;-82
2021/03/17 08:55:08;;;;;;;17.33;9.38;;;;;;;;;;4996913;28;20049;-82
2021/03/17 08:57:59;;;;;;;16.33;9.93;;;;;;;;;;4993008;28;20038;-84
2021/03/17 09:00:59;;;;;;;16.80;8.82;;;;;;;;;;4995716;28;20047;-83
2021/03/17 09:03:45;;;;;;;15.63;8.15;;;;;;;;;;4939179;29;20048;-83
2021/03/17 09:06:17;;;;;;;16.98;9.82;;;;;;;;;;4948140;29;20056;-83
2021/03/17 09:09:00;;;;;;;15.63;9.50;;;;;;;;;;4972333;28;20054;-84
2021/03/17 09:11:54;;;;;;;14.60;8.55;;;;;;;;;;4980490;28;20078;-84
2021/03/17 09:14:30;;;;;;;13.45;8.07;;;;;;;;;;4994936;28;20047;-84
2021/03/17 09:17:17;;;;;;;;;;;;;;;;;;4993543;28;20047;-84
2021/03/17 09:20:00;;;;;;;11.52;6.40;;;;;;;;;;4993401;28;19936;-83
2021/03/17 09:22:41;;;;;;;10.40;5.63;;;;;;;;;;4998762;28;20054;-84
2021/03/17 09:25:19;;;;;;;10.68;5.50;;;;;;;;;;4992314;28;20499;-84
2021/03/17 09:27:47;;;;;;;11.70;5.55;;;;;;;;;;4995619;28;20042;-83
2021/03/17 09:30:14;;;;;;;10.57;5.13;;;;;;;;;;5000603;28;20062;-82
2021/03/17 09:32:40;;;;;;;7.93;4.65;;;;;;;;;;4996477;28;20043;-82
2021/03/17 09:35:08;;;;;;;8.98;5.28;;;;;;;;;;4996781;28;20054;-83
2021/03/17 09:37:34;;;;;;;9.68;4.60;;;;;;;;;;4982744;28;20046;-82
2021/03/17 09:40:00;;;;;;;7.85;4.28;;;;;;;;;;4980509;28;20125;-81
2021/03/17 09:42:26;;;;;;;7.88;3.95;;;;;;;;;;4990115;28;20082;-81
2021/03/17 09:44:55;;;;;;;8.23;3.83;;;;;;;;;;4981656;28;20058;-82
2021/03/17 09:47:26;;;;;;;7.88;4.93;;;;;;;;;;4979813;28;20375;-83
2021/03/17 09:49:52;;;;;;;8.77;3.60;;;;;;;;;;4980706;28;20043;-82
2021/03/17 09:52:19;;;;;;;9.55;3.88;;;;;;;;;;4980651;28;20089;-81
2021/03/17 09:54:45;;;;;;;8.95;3.85;;;;;;;;;;4976689;28;20419;-81
2021/03/17 09:57:11;;;;;;;7.97;3.83;;;;;;;;;;4979614;28;20142;-82
2021/03/17 09:59:38;;;;;;;9.10;3.92;;;;;;;;;;4979730;28;20045;-82
2021/03/17 10:02:05;;;;;;;6.65;3.78;;;;;;;;;;4992149;28;20153;-82
2021/03/17 10:04:33;;;;;;;5.75;3.33;;;;;;;;;;4989672;28;20077;-82
2021/03/17 10:07:02;;;;;;;6.72;2.92;;;;;;;;;;4991051;28;20046;-82
2021/03/17 10:09:29;;;;;;;5.63;3.13;;;;;;;;;;4999287;28;20537;-81
2021/03/17 10:12:00;;;;;;;5.72;2.28;;;;;;;;;;4999388;28;20406;-82
2021/03/17 10:14:26;;;;;;;5.53;2.47;;;;;;;;;;4992936;28;20055;-82
2021/03/17 10:16:55;;;;;;;3.88;2.15;;;;;;;;;;4993543;28;20411;-82
2021/03/17 10:19:22;;;;;;;7.00;2.35;;;;;;;;;;4997642;28;20053;-83
2021/03/17 10:21:49;;;;;;;6.22;2.75;;;;;;;;;;4978639;28;20061;-86
2021/03/17 10:24:16;;;;;;;6.05;2.53;;;;;;;;;;4987070;28;20054;-82
2021/03/17 10:26:43;;;;;;;9.15;2.72;;;;;;;;;;4986412;28;20050;-81
2021/03/17 10:29:09;;;;;;;5.68;2.25;;;;;;;;;;4983462;28;20051;-81
2021/03/17 10:31:39;;;;;;;6.10;2.30;;;;;;;;;;4980291;28;20061;-82
2021/03/17 10:34:14;;;;;;;4.78;2.25;;;;;;;;;;4983218;28;20432;-83
2021/03/17 10:36:40;;;;;;;4.78;2.47;;;;;;;;;;4981104;28;20098;-83
2021/03/17 10:39:06;;;;;;;4.57;2.40;;;;;;;;;;4986684;28;20107;-83
2021/03/17 10:41:43;;;;;;;4.85;2.50;;;;;;;;;;4981964;28;20058;-82
2021/03/17 10:44:14;;;;;;;4.80;2.20;;;;;;;;;;4988060;28;20054;-83
2021/03/17 10:46:57;;;;;;;4.53;2.45;;;;;;;;;;4984426;28;20103;-82
2021/03/17 10:49:23;;;;;;;7.78;2.42;;;;;;;;;;4979385;28;20062;-83
2021/03/17 10:51:53;;;;;;;4.05;2.17;;;;;;;;;;4979623;28;20050;-82
2021/03/17 10:54:34;;;;;;;6.70;3.00;;;;;;;;;;4979193;28;20047;-83
2021/03/17 10:57:02;;;;;;;11.85;4.10;;;;;;;;;;4994566;28;20054;-82
2021/03/17 10:59:30;;;;;;;6.55;3.03;;;;;;;;;;4982288;28;20109;-81
2021/03/17 11:02:17;;;;;;;6.13;2.72;;;;;;;;;;4979813;28;20054;-82
2021/03/17 11:05:06;;;;;;;4.78;2.33;;;;;;;;;;4976035;28;20042;-83
2021/03/17 11:07:50;;;;;;;4.85;2.08;;;;;;;;;;4980147;28;20054;-82
2021/03/17 11:10:41;;;;;;;6.18;1.92;;;;;;;;;;4980231;28;20043;-82
2021/03/17 11:13:36;;;;;;;5.82;2.03;;;;;;;;;;4980756;28;20074;-82
2021/03/17 11:16:08;;;;;;;4.35;2.00;;;;;;;;;;4967697;28;20050;-82
2021/03/17 11:18:35;;;;;;;5.03;1.80;;;;;;;;;;4972735;28;20101;-83
2021/03/17 11:21:05;;;;;;;6.05;1.85;;;;;;;;;;4979597;28;20057;-83
2021/03/17 11:23:32;;;;;;;6.13;1.98;;;;;;;;;;4980196;28;20046;-83
2021/03/17 11:25:58;;;;;;;4.55;2.25;;;;;;;;;;4988936;28;20043;-83
2021/03/17 11:28:26;;;;;;;4.68;2.30;;;;;;;;;;4994184;28;20051;-82
2021/03/17 11:30:56;;;;;;;4.63;2.42;;;;;;;;;;4994542;28;20039;-82
2021/03/17 11:33:22;;;;;;;4.25;1.67;;;;;;;;;;4999630;28;20050;-82
2021/03/17 11:35:49;;;;;;;4.00;1.90;;;;;;;;;;4992618;28;20047;-84
2021/03/17 11:38:16;;;;;;;4.40;2.03;;;;;;;;;;4979051;28;20058;-82
2021/03/17 11:40:42;;;;;;;3.65;1.98;;;;;;;;;;4979580;28;20043;-84
2021/03/17 11:43:11;;;;;;;6.65;2.72;;;;;;;;;;4991960;28;20046;-85
2021/03/17 11:45:38;;;;;;;6.07;2.53;;;;;;;;;;4991861;28;20051;-85
2021/03/17 11:48:06;;;;;;;8.25;2.55;;;;;;;;;;4986981;28;20542;-82
2021/03/17 11:50:35;;;;;;;4.47;2.30;;;;;;;;;;5004311;28;20088;-85
2021/03/17 11:53:02;;;;;;;9.40;2.55;;;;;;;;;;5008018;28;20123;-85
2021/03/17 11:55:29;;;;;;;3.42;2.10;;;;;;;;;;4992343;28;20058;-88
2021/03/17 11:57:56;;;;;;;7.22;2.35;;;;;;;;;;4987965;28;20062;-84
2021/03/17 12:00:22;;;;;;;4.28;1.80;;;;;;;;;;4967694;28;20051;-82
2021/03/17 12:02:49;;;;;;;5.72;1.80;;;;;;;;;;4991111;28;20046;-84
2021/03/17 12:05:18;;;;;;;3.78;1.60;;;;;;;;;;4989199;28;20126;-82
2021/03/17 12:07:46;;;;;;;2.42;1.25;;;;;;;;;;4990435;28;20054;-85
2021/03/17 12:10:14;;;;;;;5.70;1.75;;;;;;;;;;4990728;28;20126;-84
2021/03/17 12:12:40;;;;;;;2.70;1.20;;;;;;;;;;4989392;28;20046;-83
2021/03/17 12:15:09;;;;;;;7.53;1.90;;;;;;;;;;4991409;28;20051;-84
2021/03/17 12:17:35;;;;;;;3.58;1.33;;;;;;;;;;4983642;28;20047;-85
2021/03/17 12:20:03;;;;;;;2.58;1.42;;;;;;;;;;4973504;28;20047;-86
2021/03/17 12:22:30;;;;;;;2.83;1.23;;;;;;;;;;4984511;28;20435;-84
2021/03/17 12:24:56;;;;;;;2.42;1.40;;;;;;;;;;4999315;28;20042;-83
2021/03/17 12:27:23;;;;;;;2.63;1.58;;;;;;;;;;4996124;28;20043;-84
2021/03/17 12:29:49;;;;;;;3.67;1.70;;;;;;;;;;4991385;28;20043;-84
2021/03/17 12:32:15;;;;;;;4.85;2.78;;;;;;;;;;4983810;28;20101;-82
2021/03/17 12:34:42;;;;;;;4.28;1.65;;;;;;;;;;4982601;28;20502;-84
2021/03/17 12:37:08;;;;;;;3.90;1.42;;;;;;;;;;4981945;28;20051;-82
2021/03/17 12:39:35;;;;;;;5.00;1.80;;;;;;;;;;4967257;28;20070;-83
2021/03/17 12:42:01;;;;;;;3.63;1.85;;;;;;;;;;4980495;28;20491;-83
2021/03/17 12:44:27;;;;;;;3.20;1.60;;;;;;;;;;4982522;28;20058;-82
2021/03/17 12:46:54;;;;;;;4.78;1.60;;;;;;;;;;4981340;28;20490;-84
2021/03/17 12:49:20;;;;;;;3.13;1.80;;;;;;;;;;4982080;28;20097;-83
2021/03/17 12:51:46;;;;;;;4.72;1.90;;;;;;;;;;4985514;28;20053;-83
2021/03/17 12:54:12;;;;;;;5.85;2.85;;;;;;;;;;4979934;28;20050;-83
2021/03/17 12:56:39;;;;;;;3.50;1.70;;;;;;;;;;4982029;28;20051;-83
2021/03/17 12:59:05;;;;;;;3.95;1.77;;;;;;;;;;4987833;28;20477;-83
2021/03/17 13:01:31;;;;;;;4.57;1.58;;;;;;;;;;4987061;28;20051;-82
2021/03/17 13:03:57;;;;;;;3.80;1.83;;;;;;;;;;4982324;28;20047;-83
2021/03/17 13:06:23;;;;;;;5.53;1.70;;;;;;;;;;4979486;28;20085;-84
2021/03/17 13:08:49;;;;;;;3.28;1.58;;;;;;;;;;4994202;28;20073;-83
2021/03/17 13:11:16;;;;;;;3.70;1.80;;;;;;;;;;4986924;28;20514;-83
2021/03/17 13:13:42;;;;;;;2.25;1.77;;;;;;;;;;4983448;28;20117;-82
2021/03/17 13:16:09;;;;;;;2.63;1.25;;;;;;;;;;4981151;28;20054;-84
2021/03/17 13:18:35;;;;;;;4.70;1.45;;;;;;;;;;4983352;28;20055;-83
2021/03/17 13:21:02;;;;;;;3.08;1.60;;;;;;;;;;4962533;28;20066;-82
2021/03/17 13:23:28;;;;;;;2.17;1.27;;;;;;;;;;4986169;28;20054;-83
2021/03/17 13:25:54;;;;;;;4.18;1.10;;;;;;;;;;4988493;28;20046;-82
2021/03/17 13:28:20;;;;;;;3.05;1.48;;;;;;;;;;4980566;28;20484;-82
2021/03/17 13:30:48;;;;;;;2.95;1.30;;;;;;;;;;4997146;28;20051;-82
2021/03/17 13:33:15;;;;;;;3.30;1.33;;;;;;;;;;4979275;28;20046;-82
2021/03/17 13:35:41;;;;;;;2.40;1.08;;;;;;;;;;4979875;28;20039;-81
2021/03/17 13:38:08;;;;;;;1.63;1.15;;;;;;;;;;4983703;28;20051;-82
2021/03/17 13:40:35;;;;;;;3.60;2.15;;;;;;;;;;4979224;28;20487;-82
2021/03/17 13:43:01;;;;;;;4.15;1.40;;;;;;;;;;4983496;28;20058;-83
2021/03/17 13:45:27;;;;;;;2.70;1.50;;;;;;;;;;4982949;28;20051;-83
2021/03/17 13:47:54;;;;;;;5.47;1.73;;;;;;;;;;4990981;28;20038;-83
2021/03/17 13:50:20;;;;;;;3.35;1.33;;;;;;;;;;4980436;28;20042;-83
2021/03/17 13:52:47;;;;;;;3.47;1.20;;;;;;;;;;4980206;28;20043;-83
2021/03/17 13:55:14;;;;;;;5.35;1.40;;;;;;;;;;4987001;28;20486;-82
2021/03/17 13:57:40;;;;;;;3.25;1.30;;;;;;;;;;4979892;28;20100;-83
2021/03/17 14:00:10;;;;;;;4.65;1.67;;;;;;;;;;4983417;28;20054;-82
2021/03/17 14:02:36;;;;;;;3.38;1.38;;;;;;;;;;4979253;28;20047;-83
2021/03/17 14:05:05;;;;;;;3.28;1.50;;;;;;;;;;4979998;28;20538;-83
2021/03/17 14:07:31;;;;;;;3.53;1.50;;;;;;;;;;4982792;28;20054;-82
2021/03/17 14:09:57;;;;;;;2.38;1.30;;;;;;;;;;4980074;28;20137;-83
2021/03/17 14:12:23;;;;;;;2.83;1.30;;;;;;;;;;4980631;28;20050;-82
2021/03/17 14:14:49;;;;;;;5.22;2.10;;;;;;;;;;4981613;28;20051;-82
2021/03/17 14:17:15;;;;;;;4.65;1.77;;;;;;;;;;4984075;28;20054;-82
2021/03/17 14:19:41;;;;;;;5.38;1.73;;;;;;;;;;4978147;28;20058;-82
2021/03/17 14:22:08;;;;;;;4.57;1.70;;;;;;;;;;4978348;28;20051;-82
2021/03/17 14:24:34;;;;;;;2.55;1.60;;;;;;;;;;4973405;28;20109;-83
2021/03/17 14:27:01;;;;;;;3.47;1.67;;;;;;;;;;4979163;28;20038;-82
2021/03/17 14:29:28;;;;;;;4.30;1.70;;;;;;;;;;4995112;28;20049;-86
2021/03/17 14:31:53;;;;;;;5.03;1.60;;;;;;;;;;4981014;28;20051;-82
2021/03/17 14:34:20;;;;;;;1.70;1.13;;;;;;;;;;4981256;28;20506;-82
2021/03/17 14:36:46;;;;;;;3.38;1.30;;;;;;;;;;4979586;28;20590;-83
2021/03/17 14:39:13;;;;;;;2.67;1.13;;;;;;;;;;4978658;28;20088;-85
2021/03/17 14:41:43;;;;;;;2.72;1.42;;;;;;;;;;4968885;28;20043;-82
2021/03/17 14:44:10;;;;;;;3.47;1.60;;;;;;;;;;4979928;28;20046;-83